sensor_id;sensor_type;location;lat;lon;timestamp;pressure;altitude;pressure_sealevel;temperature;humidity
60240;BME280;46102;39.012;-7.064;2023-03-01T00:01:19;98718.41;;;5.77;42.54
60240;BME280;46102;39.012;-7.064;2023-03-01T00:03:20;98705.28;;;5.84;42.36
60240;BME280;46102;39.012;-7.064;2023-03-01T00:05:21;98717.25;;;5.83;42.26
60240;BME280;46102;39.012;-7.064;2023-03-01T00:07:22;98699.00;;;5.89;42.42
60240;BME280;46102;39.012;-7.064;2023-03-01T00:09:23;98696.81;;;5.91;42.07
60240;BME280;46102;39.012;-7.064;2023-03-01T00:11:26;98699.53;;;5.91;41.99
60240;BME280;46102;39.012;-7.064;2023-03-01T00:13:27;98695.97;;;5.95;41.46
60240;BME280;46102;39.012;-7.064;2023-03-01T00:15:28;98687.22;;;5.98;41.68
60240;BME280;46102;39.012;-7.064;2023-03-01T00:17:29;98698.94;;;5.94;41.78
60240;BME280;46102;39.012;-7.064;2023-03-01T00:19:29;98692.44;;;5.95;41.61
60240;BME280;46102;39.012;-7.064;2023-03-01T00:21:30;98702.56;;;5.84;42.07
60240;BME280;46102;39.012;-7.064;2023-03-01T00:23:33;98701.50;;;5.80;41.48
60240;BME280;46102;39.012;-7.064;2023-03-01T00:25:41;98722.44;;;5.84;41.43
60240;BME280;46102;39.012;-7.064;2023-03-01T00:27:42;98720.50;;;5.90;41.80
60240;BME280;46102;39.012;-7.064;2023-03-01T00:29:42;98721.84;;;5.88;41.03
60240;BME280;46102;39.012;-7.064;2023-03-01T00:31:43;98725.97;;;5.85;41.42
60240;BME280;46102;39.012;-7.064;2023-03-01T00:33:44;98726.25;;;5.83;40.92
60240;BME280;46102;39.012;-7.064;2023-03-01T00:35:45;98729.28;;;5.77;40.79
60240;BME280;46102;39.012;-7.064;2023-03-01T00:37:46;98727.09;;;5.79;41.16
60240;BME280;46102;39.012;-7.064;2023-03-01T00:39:47;98720.28;;;5.81;40.39
60240;BME280;46102;39.012;-7.064;2023-03-01T00:41:49;98714.53;;;5.83;40.62
60240;BME280;46102;39.012;-7.064;2023-03-01T00:43:51;98707.75;;;5.80;40.10
60240;BME280;46102;39.012;-7.064;2023-03-01T00:45:51;98699.03;;;5.78;40.08
60240;BME280;46102;39.012;-7.064;2023-03-01T00:47:53;98695.78;;;5.81;39.93
60240;BME280;46102;39.012;-7.064;2023-03-01T00:49:54;98703.66;;;5.83;39.90
60240;BME280;46102;39.012;-7.064;2023-03-01T00:51:54;98701.72;;;5.89;39.50
60240;BME280;46102;39.012;-7.064;2023-03-01T00:53:59;98710.69;;;5.94;39.36
60240;BME280;46102;39.012;-7.064;2023-03-01T00:56:01;98704.69;;;5.92;39.66
60240;BME280;46102;39.012;-7.064;2023-03-01T00:58:01;98694.06;;;5.91;39.27
60240;BME280;46102;39.012;-7.064;2023-03-01T01:00:04;98710.47;;;5.80;39.58
60240;BME280;46102;39.012;-7.064;2023-03-01T01:02:05;98704.16;;;5.90;38.89
60240;BME280;46102;39.012;-7.064;2023-03-01T01:04:09;98688.94;;;5.84;39.10
60240;BME280;46102;39.012;-7.064;2023-03-01T01:06:19;98692.53;;;5.79;39.08
60240;BME280;46102;39.012;-7.064;2023-03-01T01:08:21;98689.47;;;5.86;39.53
60240;BME280;46102;39.012;-7.064;2023-03-01T01:10:22;98694.66;;;5.82;39.00
60240;BME280;46102;39.012;-7.064;2023-03-01T01:12:22;98689.53;;;5.81;39.42
60240;BME280;46102;39.012;-7.064;2023-03-01T01:14:23;98690.56;;;5.85;39.38
60240;BME280;46102;39.012;-7.064;2023-03-01T01:16:26;98687.53;;;5.92;38.98
60240;BME280;46102;39.012;-7.064;2023-03-01T01:18:27;98691.28;;;6.01;38.85
60240;BME280;46102;39.012;-7.064;2023-03-01T01:20:27;98694.56;;;6.03;38.46
60240;BME280;46102;39.012;-7.064;2023-03-01T01:22:28;98695.69;;;5.92;38.81
60240;BME280;46102;39.012;-7.064;2023-03-01T01:24:29;98691.34;;;5.91;38.38
60240;BME280;46102;39.012;-7.064;2023-03-01T01:26:32;98701.75;;;5.83;38.85
60240;BME280;46102;39.012;-7.064;2023-03-01T01:28:35;98712.34;;;5.85;38.86
60240;BME280;46102;39.012;-7.064;2023-03-01T01:30:35;98703.38;;;5.84;39.04
60240;BME280;46102;39.012;-7.064;2023-03-01T01:32:36;98710.19;;;5.82;38.79
60240;BME280;46102;39.012;-7.064;2023-03-01T01:34:37;98717.91;;;5.70;39.24
60240;BME280;46102;39.012;-7.064;2023-03-01T01:36:38;98713.31;;;5.60;39.74
60240;BME280;46102;39.012;-7.064;2023-03-01T01:38:39;98712.19;;;5.66;39.18
60240;BME280;46102;39.012;-7.064;2023-03-01T01:40:47;98708.41;;;5.62;39.13
60240;BME280;46102;39.012;-7.064;2023-03-01T01:42:48;98708.41;;;5.62;39.98
60240;BME280;46102;39.012;-7.064;2023-03-01T01:45:24;98710.34;;;5.56;39.51
60240;BME280;46102;39.012;-7.064;2023-03-01T01:47:26;98700.81;;;5.59;39.94
60240;BME280;46102;39.012;-7.064;2023-03-01T01:49:46;98703.84;;;5.52;39.27
60240;BME280;46102;39.012;-7.064;2023-03-01T01:51:49;98698.41;;;5.52;39.78
60240;BME280;46102;39.012;-7.064;2023-03-01T01:53:56;98691.00;;;5.58;39.96
60240;BME280;46102;39.012;-7.064;2023-03-01T01:56:01;98690.41;;;5.66;40.15
60240;BME280;46102;39.012;-7.064;2023-03-01T01:58:04;98685.81;;;5.61;39.77
60240;BME280;46102;39.012;-7.064;2023-03-01T02:00:12;98680.44;;;5.51;39.89
60240;BME280;46102;39.012;-7.064;2023-03-01T02:02:17;98685.88;;;5.56;39.55
60240;BME280;46102;39.012;-7.064;2023-03-01T02:04:19;98678.53;;;5.52;40.17
60240;BME280;46102;39.012;-7.064;2023-03-01T02:06:41;98682.63;;;5.49;40.06
60240;BME280;46102;39.012;-7.064;2023-03-01T02:08:44;98682.88;;;5.53;39.80
60240;BME280;46102;39.012;-7.064;2023-03-01T02:10:47;98676.66;;;5.47;40.21
60240;BME280;46102;39.012;-7.064;2023-03-01T02:12:50;98674.44;;;5.49;40.18
60240;BME280;46102;39.012;-7.064;2023-03-01T02:14:51;98672.88;;;5.43;39.90
60240;BME280;46102;39.012;-7.064;2023-03-01T02:16:52;98672.91;;;5.33;40.50
60240;BME280;46102;39.012;-7.064;2023-03-01T02:18:53;98679.47;;;5.32;40.67
60240;BME280;46102;39.012;-7.064;2023-03-01T02:23:03;98673.44;;;5.35;40.68
60240;BME280;46102;39.012;-7.064;2023-03-01T02:27:22;98675.44;;;5.19;41.38
60240;BME280;46102;39.012;-7.064;2023-03-01T02:29:26;98678.16;;;5.19;40.66
60240;BME280;46102;39.012;-7.064;2023-03-01T02:31:28;98675.19;;;5.10;41.44
60240;BME280;46102;39.012;-7.064;2023-03-01T02:33:46;98668.09;;;5.14;40.89
60240;BME280;46102;39.012;-7.064;2023-03-01T02:35:48;98676.84;;;5.11;41.21
60240;BME280;46102;39.012;-7.064;2023-03-01T02:37:50;98677.94;;;5.05;41.27
60240;BME280;46102;39.012;-7.064;2023-03-01T02:39:55;98672.75;;;5.09;41.03
60240;BME280;46102;39.012;-7.064;2023-03-01T02:41:58;98665.41;;;5.04;41.61
60240;BME280;46102;39.012;-7.064;2023-03-01T02:44:01;98658.94;;;5.00;41.27
60240;BME280;46102;39.012;-7.064;2023-03-01T02:46:06;98645.59;;;4.98;41.83
60240;BME280;46102;39.012;-7.064;2023-03-01T02:48:07;98642.38;;;4.91;41.24
60240;BME280;46102;39.012;-7.064;2023-03-01T02:52:45;98620.06;;;4.94;41.21
60240;BME280;46102;39.012;-7.064;2023-03-01T02:57:01;98614.66;;;4.89;41.45
60240;BME280;46102;39.012;-7.064;2023-03-01T02:59:06;98620.66;;;4.81;41.71
60240;BME280;46102;39.012;-7.064;2023-03-01T03:01:08;98623.63;;;4.79;42.01
60240;BME280;46102;39.012;-7.064;2023-03-01T03:03:13;98626.66;;;4.78;42.07
60240;BME280;46102;39.012;-7.064;2023-03-01T03:07:18;98637.78;;;4.76;42.47
60240;BME280;46102;39.012;-7.064;2023-03-01T03:09:19;98635.63;;;4.78;42.66
60240;BME280;46102;39.012;-7.064;2023-03-01T03:11:20;98632.09;;;4.78;42.52
60240;BME280;46102;39.012;-7.064;2023-03-01T03:13:21;98628.03;;;4.70;42.27
60240;BME280;46102;39.012;-7.064;2023-03-01T03:15:23;98625.88;;;4.67;43.39
60240;BME280;46102;39.012;-7.064;2023-03-01T03:17:24;98623.44;;;4.61;42.80
60240;BME280;46102;39.012;-7.064;2023-03-01T03:19:26;98618.81;;;4.61;43.44
60240;BME280;46102;39.012;-7.064;2023-03-01T03:21:27;98606.59;;;4.58;43.28
60240;BME280;46102;39.012;-7.064;2023-03-01T03:23:27;98604.97;;;4.57;43.33
60240;BME280;46102;39.012;-7.064;2023-03-01T03:25:29;98613.41;;;4.51;43.36
60240;BME280;46102;39.012;-7.064;2023-03-01T03:27:30;98621.06;;;4.44;43.24
60240;BME280;46102;39.012;-7.064;2023-03-01T03:29:32;98614.28;;;4.31;43.66
60240;BME280;46102;39.012;-7.064;2023-03-01T03:31:33;98612.09;;;4.38;44.35
60240;BME280;46102;39.012;-7.064;2023-03-01T03:33:34;98608.81;;;4.41;44.29
60240;BME280;46102;39.012;-7.064;2023-03-01T03:35:41;98598.47;;;4.43;43.63
60240;BME280;46102;39.012;-7.064;2023-03-01T03:37:42;98601.78;;;4.35;43.84
60240;BME280;46102;39.012;-7.064;2023-03-01T03:40:01;98592.00;;;4.39;44.57
60240;BME280;46102;39.012;-7.064;2023-03-01T03:42:02;98589.53;;;4.37;44.16
60240;BME280;46102;39.012;-7.064;2023-03-01T03:44:03;98579.50;;;4.33;43.85
60240;BME280;46102;39.012;-7.064;2023-03-01T03:46:04;98575.69;;;4.34;44.21
60240;BME280;46102;39.012;-7.064;2023-03-01T03:48:08;98584.94;;;4.28;44.00
60240;BME280;46102;39.012;-7.064;2023-03-01T03:50:11;98579.81;;;4.21;44.30
60240;BME280;46102;39.012;-7.064;2023-03-01T03:52:12;98576.28;;;4.10;44.89
60240;BME280;46102;39.012;-7.064;2023-03-01T03:54:13;98571.38;;;4.17;44.43
60240;BME280;46102;39.012;-7.064;2023-03-01T03:56:14;98581.44;;;4.17;44.72
60240;BME280;46102;39.012;-7.064;2023-03-01T03:58:15;98583.88;;;4.13;44.45
60240;BME280;46102;39.012;-7.064;2023-03-01T04:00:20;98588.50;;;4.13;45.26
60240;BME280;46102;39.012;-7.064;2023-03-01T04:02:24;98586.34;;;4.05;44.94
60240;BME280;46102;39.012;-7.064;2023-03-01T04:04:25;98579.84;;;4.06;45.29
60240;BME280;46102;39.012;-7.064;2023-03-01T04:06:26;98577.38;;;4.04;44.95
60240;BME280;46102;39.012;-7.064;2023-03-01T04:08:27;98573.88;;;3.99;45.57
60240;BME280;46102;39.012;-7.064;2023-03-01T04:10:30;98579.84;;;3.90;45.37
60240;BME280;46102;39.012;-7.064;2023-03-01T04:12:31;98586.34;;;3.89;45.30
60240;BME280;46102;39.012;-7.064;2023-03-01T04:14:34;98590.44;;;3.92;45.39
60240;BME280;46102;39.012;-7.064;2023-03-01T04:16:35;98591.25;;;3.92;45.99
60240;BME280;46102;39.012;-7.064;2023-03-01T04:18:35;98584.75;;;3.83;45.82
60240;BME280;46102;39.012;-7.064;2023-03-01T04:20:36;98584.19;;;3.81;46.15
60240;BME280;46102;39.012;-7.064;2023-03-01T04:22:38;98572.78;;;3.89;45.99
60240;BME280;46102;39.012;-7.064;2023-03-01T04:24:39;98572.78;;;3.79;46.51
60240;BME280;46102;39.012;-7.064;2023-03-01T04:26:40;98570.88;;;3.80;46.65
60240;BME280;46102;39.012;-7.064;2023-03-01T04:28:42;98580.66;;;3.86;46.70
60240;BME280;46102;39.012;-7.064;2023-03-01T04:30:46;98569.28;;;3.79;46.26
60240;BME280;46102;39.012;-7.064;2023-03-01T04:32:46;98570.88;;;3.80;46.75
60240;BME280;46102;39.012;-7.064;2023-03-01T04:34:47;98572.25;;;3.77;46.27
60240;BME280;46102;39.012;-7.064;2023-03-01T04:36:48;98579.84;;;3.70;46.73
60240;BME280;46102;39.012;-7.064;2023-03-01T04:38:49;98587.19;;;3.74;46.51
60240;BME280;46102;39.012;-7.064;2023-03-01T04:40:50;98588.25;;;3.68;46.69
60240;BME280;46102;39.012;-7.064;2023-03-01T04:42:50;98580.94;;;3.64;46.25
60240;BME280;46102;39.012;-7.064;2023-03-01T04:44:51;98579.84;;;3.54;46.55
60240;BME280;46102;39.012;-7.064;2023-03-01T04:46:52;98581.19;;;3.62;46.44
60240;BME280;46102;39.012;-7.064;2023-03-01T04:48:53;98579.03;;;3.64;46.64
60240;BME280;46102;39.012;-7.064;2023-03-01T04:50:54;98575.22;;;3.55;46.91
60240;BME280;46102;39.012;-7.064;2023-03-01T04:52:55;98578.22;;;3.64;46.92
60240;BME280;46102;39.012;-7.064;2023-03-01T04:54:58;98584.44;;;3.49;47.06
60240;BME280;46102;39.012;-7.064;2023-03-01T04:57:00;98586.63;;;3.52;46.70
60240;BME280;46102;39.012;-7.064;2023-03-01T04:59:01;98586.63;;;3.52;47.33
60240;BME280;46102;39.012;-7.064;2023-03-01T05:01:09;98582.56;;;3.54;46.97
60240;BME280;46102;39.012;-7.064;2023-03-01T05:03:15;98583.09;;;3.46;47.61
60240;BME280;46102;39.012;-7.064;2023-03-01T05:05:21;98580.63;;;3.40;47.20
60240;BME280;46102;39.012;-7.064;2023-03-01T05:07:25;98584.19;;;3.40;47.31
60240;BME280;46102;39.012;-7.064;2023-03-01T05:09:26;98585.78;;;3.46;47.41
60240;BME280;46102;39.012;-7.064;2023-03-01T05:11:27;98585.81;;;3.41;47.45
60240;BME280;46102;39.012;-7.064;2023-03-01T05:13:32;98586.31;;;3.33;47.80
60240;BME280;46102;39.012;-7.064;2023-03-01T05:15:32;98586.31;;;3.28;47.90
60240;BME280;46102;39.012;-7.064;2023-03-01T05:17:34;98581.69;;;3.23;47.90
60240;BME280;46102;39.012;-7.064;2023-03-01T05:19:34;98582.50;;;3.24;47.94
60240;BME280;46102;39.012;-7.064;2023-03-01T05:21:36;98587.94;;;3.19;47.96
60240;BME280;46102;39.012;-7.064;2023-03-01T05:23:56;98586.84;;;3.15;48.35
60240;BME280;46102;39.012;-7.064;2023-03-01T05:25:58;98585.19;;;3.08;48.74
60240;BME280;46102;39.012;-7.064;2023-03-01T05:28:01;98582.47;;;3.03;48.85
60240;BME280;46102;39.012;-7.064;2023-03-01T05:30:05;98582.19;;;3.00;48.95
60240;BME280;46102;39.012;-7.064;2023-03-01T05:32:13;98581.38;;;2.99;48.99
60240;BME280;46102;39.012;-7.064;2023-03-01T05:34:16;98591.69;;;3.02;49.19
60240;BME280;46102;39.012;-7.064;2023-03-01T05:36:16;98581.09;;;2.96;49.34
60240;BME280;46102;39.012;-7.064;2023-03-01T05:38:19;98581.88;;;2.86;49.38
60240;BME280;46102;39.012;-7.064;2023-03-01T05:40:22;98583.25;;;2.88;49.64
60240;BME280;46102;39.012;-7.064;2023-03-01T05:42:24;98585.94;;;2.83;49.86
60240;BME280;46102;39.012;-7.064;2023-03-01T05:44:25;98582.91;;;2.75;49.90
60240;BME280;46102;39.012;-7.064;2023-03-01T05:46:26;98582.91;;;2.75;50.22
60240;BME280;46102;39.012;-7.064;2023-03-01T05:48:27;98585.34;;;2.71;50.07
60240;BME280;46102;39.012;-7.064;2023-03-01T05:50:29;98582.34;;;2.67;50.31
60240;BME280;46102;39.012;-7.064;2023-03-01T05:52:30;98581.53;;;2.67;50.19
60240;BME280;46102;39.012;-7.064;2023-03-01T05:54:31;98578.28;;;2.65;50.43
60240;BME280;46102;39.012;-7.064;2023-03-01T05:56:36;98583.94;;;2.58;50.25
60240;BME280;46102;39.012;-7.064;2023-03-01T05:58:37;98580.97;;;2.65;50.44
60240;BME280;46102;39.012;-7.064;2023-03-01T06:00:39;98582.03;;;2.59;50.25
60240;BME280;46102;39.012;-7.064;2023-03-01T06:02:40;98575.56;;;2.65;50.08
60240;BME280;46102;39.012;-7.064;2023-03-01T06:04:40;98589.97;;;2.70;50.03
60240;BME280;46102;39.012;-7.064;2023-03-01T06:06:41;98588.53;;;2.58;50.16
60240;BME280;46102;39.012;-7.064;2023-03-01T06:08:42;98587.19;;;2.60;50.14
60240;BME280;46102;39.012;-7.064;2023-03-01T06:10:43;98588.56;;;2.63;50.16
60240;BME280;46102;39.012;-7.064;2023-03-01T06:12:44;98587.50;;;2.64;50.08
60240;BME280;46102;39.012;-7.064;2023-03-01T06:14:46;98592.06;;;2.63;50.27
60240;BME280;46102;39.012;-7.064;2023-03-01T06:16:47;98594.03;;;2.68;50.05
60240;BME280;46102;39.012;-7.064;2023-03-01T06:18:48;98587.22;;;2.65;50.09
60240;BME280;46102;39.012;-7.064;2023-03-01T06:20:53;98601.06;;;2.74;49.98
60240;BME280;46102;39.012;-7.064;2023-03-01T06:22:54;98595.13;;;2.77;49.86
60240;BME280;46102;39.012;-7.064;2023-03-01T06:24:55;98598.09;;;2.70;49.95
60240;BME280;46102;39.012;-7.064;2023-03-01T06:26:56;98601.34;;;2.73;49.87
60240;BME280;46102;39.012;-7.064;2023-03-01T06:28:56;98602.66;;;2.70;49.67
60240;BME280;46102;39.012;-7.064;2023-03-01T06:30:57;98622.47;;;2.70;49.84
60240;BME280;46102;39.012;-7.064;2023-03-01T06:32:58;98613.25;;;2.66;49.79
60240;BME280;46102;39.012;-7.064;2023-03-01T06:35:01;98614.59;;;2.64;49.67
60240;BME280;46102;39.012;-7.064;2023-03-01T06:37:02;98609.97;;;2.59;49.76
60240;BME280;46102;39.012;-7.064;2023-03-01T06:39:05;98616.97;;;2.55;49.98
60240;BME280;46102;39.012;-7.064;2023-03-01T06:41:06;98629.44;;;2.56;49.85
60240;BME280;46102;39.012;-7.064;2023-03-01T06:43:07;98631.06;;;2.57;49.75
60240;BME280;46102;39.012;-7.064;2023-03-01T06:45:09;98633.22;;;2.55;49.74
60240;BME280;46102;39.012;-7.064;2023-03-01T06:47:10;98633.47;;;2.54;49.90
60240;BME280;46102;39.012;-7.064;2023-03-01T06:49:10;98640.56;;;2.60;49.69
60240;BME280;46102;39.012;-7.064;2023-03-01T06:51:11;98642.19;;;2.61;49.72
60240;BME280;46102;39.012;-7.064;2023-03-01T06:53:12;98642.72;;;2.58;49.89
60240;BME280;46102;39.012;-7.064;2023-03-01T06:55:13;98630.78;;;2.59;49.63
60240;BME280;46102;39.012;-7.064;2023-03-01T06:57:14;98638.34;;;2.57;49.81
60240;BME280;46102;39.012;-7.064;2023-03-01T06:59:15;98636.22;;;2.59;49.60
60240;BME280;46102;39.012;-7.064;2023-03-01T07:01:16;98633.81;;;2.62;49.60
60240;BME280;46102;39.012;-7.064;2023-03-01T07:03:16;98645.16;;;2.59;49.62
60240;BME280;46102;39.012;-7.064;2023-03-01T07:05:17;98649.25;;;2.62;49.73
60240;BME280;46102;39.012;-7.064;2023-03-01T07:07:18;98651.94;;;2.62;49.52
60240;BME280;46102;39.012;-7.064;2023-03-01T07:09:19;98651.41;;;2.65;49.43
60240;BME280;46102;39.012;-7.064;2023-03-01T07:11:22;98650.66;;;2.75;49.28
60240;BME280;46102;39.012;-7.064;2023-03-01T07:13:23;98664.72;;;2.71;49.35
60240;BME280;46102;39.012;-7.064;2023-03-01T07:15:26;98665.84;;;2.76;48.95
60240;BME280;46102;39.012;-7.064;2023-03-01T07:17:27;98662.13;;;2.92;48.92
60240;BME280;46102;39.012;-7.064;2023-03-01T07:19:27;98667.91;;;3.21;48.15
60240;BME280;46102;39.012;-7.064;2023-03-01T07:21:28;98664.50;;;3.57;47.21
60240;BME280;46102;39.012;-7.064;2023-03-01T07:23:29;98653.69;;;3.92;46.76
60240;BME280;46102;39.012;-7.064;2023-03-01T07:25:30;98660.44;;;4.36;45.61
60240;BME280;46102;39.012;-7.064;2023-03-01T07:27:31;98660.69;;;4.60;44.80
60240;BME280;46102;39.012;-7.064;2023-03-01T07:29:32;98661.94;;;4.88;43.93
60240;BME280;46102;39.012;-7.064;2023-03-01T07:31:33;98651.22;;;5.17;43.16
60240;BME280;46102;39.012;-7.064;2023-03-01T07:33:34;98652.13;;;5.52;42.23
60240;BME280;46102;39.012;-7.064;2023-03-01T07:35:34;98651.81;;;5.98;41.20
60240;BME280;46102;39.012;-7.064;2023-03-01T07:37:35;98654.28;;;6.00;41.21
60240;BME280;46102;39.012;-7.064;2023-03-01T07:39:36;98657.69;;;6.16;40.57
60240;BME280;46102;39.012;-7.064;2023-03-01T07:41:37;98655.44;;;6.23;40.41
60240;BME280;46102;39.012;-7.064;2023-03-01T07:43:38;98656.72;;;6.01;40.64
60240;BME280;46102;39.012;-7.064;2023-03-01T07:45:39;98665.78;;;5.87;41.12
60240;BME280;46102;39.012;-7.064;2023-03-01T07:47:39;98668.38;;;5.68;41.11
60240;BME280;46102;39.012;-7.064;2023-03-01T07:49:40;98672.31;;;5.46;42.06
60240;BME280;46102;39.012;-7.064;2023-03-01T07:51:43;98676.22;;;5.25;42.26
60240;BME280;46102;39.012;-7.064;2023-03-01T07:53:46;98672.91;;;5.33;41.66
60240;BME280;46102;39.012;-7.064;2023-03-01T07:55:47;98680.25;;;5.32;41.90
60240;BME280;46102;39.012;-7.064;2023-03-01T07:57:48;98680.84;;;5.24;42.44
60240;BME280;46102;39.012;-7.064;2023-03-01T07:59:49;98684.63;;;5.28;42.22
60240;BME280;46102;39.012;-7.064;2023-03-01T08:01:50;98684.66;;;5.23;42.30
60240;BME280;46102;39.012;-7.064;2023-03-01T08:03:50;98694.19;;;5.20;42.62
60240;BME280;46102;39.012;-7.064;2023-03-01T08:05:51;98692.22;;;5.31;42.19
60240;BME280;46102;39.012;-7.064;2023-03-01T08:07:52;98696.28;;;5.39;41.82
60240;BME280;46102;39.012;-7.064;2023-03-01T08:09:53;98703.03;;;5.47;41.60
60240;BME280;46102;39.012;-7.064;2023-03-01T08:11:56;98694.56;;;5.53;41.25
60240;BME280;46102;39.012;-7.064;2023-03-01T08:13:57;98698.88;;;5.64;40.89
60240;BME280;46102;39.012;-7.064;2023-03-01T08:16:07;98700.75;;;5.69;40.86
60240;BME280;46102;39.012;-7.064;2023-03-01T08:18:08;98706.97;;;5.75;40.87
60240;BME280;46102;39.012;-7.064;2023-03-01T08:20:10;98701.44;;;5.90;40.63
60240;BME280;46102;39.012;-7.064;2023-03-01T08:22:12;98697.03;;;5.99;40.65
60240;BME280;46102;39.012;-7.064;2023-03-01T08:24:13;98701.06;;;6.07;39.98
60240;BME280;46102;39.012;-7.064;2023-03-01T08:26:17;98705.13;;;6.10;40.29
60240;BME280;46102;39.012;-7.064;2023-03-01T08:28:19;98708.63;;;6.15;40.19
60240;BME280;46102;39.012;-7.064;2023-03-01T08:30:19;98702.53;;;6.29;39.97
60240;BME280;46102;39.012;-7.064;2023-03-01T08:32:20;98707.88;;;6.44;39.74
60240;BME280;46102;39.012;-7.064;2023-03-01T08:34:21;98706.94;;;6.54;39.13
60240;BME280;46102;39.012;-7.064;2023-03-01T08:36:25;98705.03;;;6.54;39.34
60240;BME280;46102;39.012;-7.064;2023-03-01T08:38:27;98704.09;;;6.69;39.21
60240;BME280;46102;39.012;-7.064;2023-03-01T08:40:27;98704.28;;;6.78;39.02
60240;BME280;46102;39.012;-7.064;2023-03-01T08:42:28;98702.75;;;6.91;38.76
60240;BME280;46102;39.012;-7.064;2023-03-01T08:44:29;98698.06;;;6.96;38.52
60240;BME280;46102;39.012;-7.064;2023-03-01T08:46:37;98697.59;;;7.13;38.51
60240;BME280;46102;39.012;-7.064;2023-03-01T08:48:38;98691.66;;;7.30;37.77
60240;BME280;46102;39.012;-7.064;2023-03-01T08:50:39;98686.44;;;7.34;38.04
60240;BME280;46102;39.012;-7.064;2023-03-01T08:52:43;98688.00;;;7.40;38.27
60240;BME280;46102;39.012;-7.064;2023-03-01T08:54:43;98689.19;;;7.53;37.70
60240;BME280;46102;39.012;-7.064;2023-03-01T08:56:45;98688.16;;;7.67;37.09
60240;BME280;46102;39.012;-7.064;2023-03-01T08:58:47;98689.13;;;7.77;37.16
60240;BME280;46102;39.012;-7.064;2023-03-01T09:00:48;98682.91;;;7.90;36.75
60240;BME280;46102;39.012;-7.064;2023-03-01T09:02:49;98678.72;;;7.98;36.54
60240;BME280;46102;39.012;-7.064;2023-03-01T09:04:49;98678.78;;;8.11;36.12
60240;BME280;46102;39.012;-7.064;2023-03-01T09:06:50;98684.00;;;8.27;35.54
60240;BME280;46102;39.012;-7.064;2023-03-01T09:08:51;98679.31;;;8.46;35.67
60240;BME280;46102;39.012;-7.064;2023-03-01T09:10:52;98671.84;;;8.52;35.63
60240;BME280;46102;39.012;-7.064;2023-03-01T09:12:53;98671.34;;;8.64;35.25
60240;BME280;46102;39.012;-7.064;2023-03-01T09:14:53;98672.88;;;8.70;34.68
60240;BME280;46102;39.012;-7.064;2023-03-01T09:16:54;98671.16;;;8.74;34.34
60240;BME280;46102;39.012;-7.064;2023-03-01T09:18:55;98668.94;;;8.90;34.47
60240;BME280;46102;39.012;-7.064;2023-03-01T09:21:07;98665.19;;;9.00;34.86
60240;BME280;46102;39.012;-7.064;2023-03-01T09:23:08;98668.16;;;9.03;34.70
60240;BME280;46102;39.012;-7.064;2023-03-01T09:25:09;98670.38;;;9.15;34.34
60240;BME280;46102;39.012;-7.064;2023-03-01T09:27:10;98669.72;;;9.32;34.08
60240;BME280;46102;39.012;-7.064;2023-03-01T09:29:11;98667.91;;;9.41;34.14
60240;BME280;46102;39.012;-7.064;2023-03-01T09:31:13;98670.13;;;9.53;33.14
60240;BME280;46102;39.012;-7.064;2023-03-01T09:33:14;98667.56;;;9.56;33.78
60240;BME280;46102;39.012;-7.064;2023-03-01T09:35:15;98667.09;;;9.77;33.69
60240;BME280;46102;39.012;-7.064;2023-03-01T09:37:16;98669.63;;;9.87;33.47
60240;BME280;46102;39.012;-7.064;2023-03-01T09:39:17;98667.75;;;9.96;33.67
60240;BME280;46102;39.012;-7.064;2023-03-01T09:45:48;98669.41;;;10.65;33.56
60240;BME280;46102;39.012;-7.064;2023-03-01T09:47:51;98659.72;;;11.08;33.32
60240;BME280;46102;39.012;-7.064;2023-03-01T09:50:14;98659.81;;;11.42;31.76
60240;BME280;46102;39.012;-7.064;2023-03-01T09:54:27;98652.44;;;12.04;30.76
60240;BME280;46102;39.012;-7.064;2023-03-01T09:56:43;98651.66;;;12.21;30.34
60240;BME280;46102;39.012;-7.064;2023-03-01T09:58:59;98652.56;;;12.34;29.49
60240;BME280;46102;39.012;-7.064;2023-03-01T10:01:22;98646.75;;;12.44;29.88
60240;BME280;46102;39.012;-7.064;2023-03-01T10:03:28;98651.53;;;12.73;29.57
60240;BME280;46102;39.012;-7.064;2023-03-01T10:10:10;98652.72;;;13.02;28.58
60240;BME280;46102;39.012;-7.064;2023-03-01T10:12:18;98653.72;;;13.27;28.63
60240;BME280;46102;39.012;-7.064;2023-03-01T10:14:34;98648.94;;;13.45;29.85
60240;BME280;46102;39.012;-7.064;2023-03-01T10:16:48;98652.81;;;13.73;28.02
60240;BME280;46102;39.012;-7.064;2023-03-01T10:18:57;98641.72;;;14.03;27.71
60240;BME280;46102;39.012;-7.064;2023-03-01T10:21:02;98639.97;;;13.99;28.40
60240;BME280;46102;39.012;-7.064;2023-03-01T10:23:04;98647.34;;;14.07;27.49
60240;BME280;46102;39.012;-7.064;2023-03-01T10:25:05;98636.63;;;14.26;27.30
60240;BME280;46102;39.012;-7.064;2023-03-01T10:29:16;98639.47;;;14.18;27.24
60240;BME280;46102;39.012;-7.064;2023-03-01T10:31:23;98636.00;;;14.21;27.15
60240;BME280;46102;39.012;-7.064;2023-03-01T10:33:33;98637.13;;;14.41;27.37
60240;BME280;46102;39.012;-7.064;2023-03-01T10:35:35;98638.28;;;14.52;26.01
60240;BME280;46102;39.012;-7.064;2023-03-01T10:37:56;98634.69;;;14.60;26.20
60240;BME280;46102;39.012;-7.064;2023-03-01T10:40:06;98635.38;;;14.57;25.70
60240;BME280;46102;39.012;-7.064;2023-03-01T10:42:26;98638.94;;;14.57;25.67
60240;BME280;46102;39.012;-7.064;2023-03-01T10:44:43;98641.72;;;14.36;24.77
60240;BME280;46102;39.012;-7.064;2023-03-01T10:46:45;98633.78;;;14.35;24.79
60240;BME280;46102;39.012;-7.064;2023-03-01T10:48:45;98633.00;;;14.47;24.21
60240;BME280;46102;39.012;-7.064;2023-03-01T10:50:49;98631.41;;;14.46;24.39
60240;BME280;46102;39.012;-7.064;2023-03-01T10:53:01;98619.28;;;14.38;24.12
60240;BME280;46102;39.012;-7.064;2023-03-01T10:55:24;98619.97;;;14.35;24.46
60240;BME280;46102;39.012;-7.064;2023-03-01T10:57:32;98628.25;;;14.68;24.61
60240;BME280;46102;39.012;-7.064;2023-03-01T10:59:35;98621.50;;;15.03;23.30
60240;BME280;46102;39.012;-7.064;2023-03-01T11:01:36;98621.97;;;15.29;23.42
60240;BME280;46102;39.012;-7.064;2023-03-01T11:03:38;98615.47;;;15.37;23.37
60240;BME280;46102;39.012;-7.064;2023-03-01T11:06:01;98610.75;;;15.50;23.67
60240;BME280;46102;39.012;-7.064;2023-03-01T11:08:03;98608.06;;;15.66;23.51
60240;BME280;46102;39.012;-7.064;2023-03-01T11:10:11;98619.06;;;15.38;24.01
60240;BME280;46102;39.012;-7.064;2023-03-01T11:12:16;98608.72;;;15.23;23.99
60240;BME280;46102;39.012;-7.064;2023-03-01T11:14:22;98610.22;;;15.20;23.88
60240;BME280;46102;39.012;-7.064;2023-03-01T11:16:26;98612.31;;;15.11;23.83